sensor_id;sensor_type;location;lat;lon;timestamp;P1;durP1;ratioP1;P2;durP2;ratioP2
59052;SDS011;44843;44.728;10.396;2022-07-09T00:01:57;5.57;;;1.27;;
59052;SDS011;44843;44.728;10.396;2022-07-09T00:04:23;2.30;;;1.30;;
59052;SDS011;44843;44.728;10.396;2022-07-09T00:06:48;3.53;;;1.30;;
59052;SDS011;44843;44.728;10.396;2022-07-09T00:09:14;1.20;;;1.10;;
59052;SDS011;44843;44.728;10.396;2022-07-09T00:11:39;2.92;;;1.10;;
59052;SDS011;44843;44.728;10.396;2022-07-09T00:14:05;0.95;;;0.90;;
59052;SDS011;44843;44.728;10.396;2022-07-09T00:16:30;3.42;;;1.20;;
59052;SDS011;44843;44.728;10.396;2022-07-09T00:18:56;1.10;;;1.00;;
59052;SDS011;44843;44.728;10.396;2022-07-09T00:21:21;2.67;;;1.00;;
59052;SDS011;44843;44.728;10.396;2022-07-09T00:23:46;1.83;;;1.27;;
59052;SDS011;44843;44.728;10.396;2022-07-09T00:26:12;2.00;;;1.25;;
59052;SDS011;44843;44.728;10.396;2022-07-09T00:28:37;1.65;;;1.10;;
59052;SDS011;44843;44.728;10.396;2022-07-09T00:31:03;2.35;;;1.38;;
59052;SDS011;44843;44.728;10.396;2022-07-09T00:33:28;1.60;;;1.10;;
59052;SDS011;44843;44.728;10.396;2022-07-09T00:35:54;1.98;;;1.38;;
59052;SDS011;44843;44.728;10.396;2022-07-09T00:38:19;1.95;;;1.48;;
59052;SDS011;44843;44.728;10.396;2022-07-09T00:40:45;1.33;;;1.20;;
59052;SDS011;44843;44.728;10.396;2022-07-09T00:43:17;2.13;;;1.27;;
59052;SDS011;44843;44.728;10.396;2022-07-09T00:45:46;2.85;;;1.48;;
59052;SDS011;44843;44.728;10.396;2022-07-09T00:48:13;1.88;;;1.33;;
59052;SDS011;44843;44.728;10.396;2022-07-09T00:50:39;2.67;;;1.25;;
59052;SDS011;44843;44.728;10.396;2022-07-09T00:53:06;1.95;;;1.20;;
59052;SDS011;44843;44.728;10.396;2022-07-09T00:55:37;1.30;;;1.20;;
59052;SDS011;44843;44.728;10.396;2022-07-09T00:58:03;1.40;;;1.30;;
59052;SDS011;44843;44.728;10.396;2022-07-09T01:00:29;2.80;;;1.30;;
59052;SDS011;44843;44.728;10.396;2022-07-09T01:02:55;1.48;;;1.02;;
59052;SDS011;44843;44.728;10.396;2022-07-09T01:05:21;1.23;;;1.13;;
59052;SDS011;44843;44.728;10.396;2022-07-09T01:07:47;1.40;;;1.30;;
59052;SDS011;44843;44.728;10.396;2022-07-09T01:10:12;3.03;;;1.50;;
59052;SDS011;44843;44.728;10.396;2022-07-09T01:12:38;3.03;;;1.52;;
59052;SDS011;44843;44.728;10.396;2022-07-09T01:15:04;3.72;;;1.63;;
59052;SDS011;44843;44.728;10.396;2022-07-09T01:17:37;1.40;;;1.27;;
59052;SDS011;44843;44.728;10.396;2022-07-09T01:20:03;5.85;;;1.30;;
59052;SDS011;44843;44.728;10.396;2022-07-09T01:22:29;2.03;;;1.20;;
59052;SDS011;44843;44.728;10.396;2022-07-09T01:24:55;1.73;;;1.10;;
59052;SDS011;44843;44.728;10.396;2022-07-09T01:27:22;1.20;;;1.10;;
59052;SDS011;44843;44.728;10.396;2022-07-09T01:29:47;2.45;;;1.30;;
59052;SDS011;44843;44.728;10.396;2022-07-09T01:32:14;1.35;;;1.10;;
59052;SDS011;44843;44.728;10.396;2022-07-09T01:34:41;6.32;;;1.40;;
59052;SDS011;44843;44.728;10.396;2022-07-09T01:37:06;3.53;;;1.23;;
59052;SDS011;44843;44.728;10.396;2022-07-09T01:39:31;1.63;;;1.30;;
59052;SDS011;44843;44.728;10.396;2022-07-09T01:41:57;2.13;;;1.30;;
59052;SDS011;44843;44.728;10.396;2022-07-09T01:44:23;3.17;;;1.40;;
59052;SDS011;44843;44.728;10.396;2022-07-09T01:46:48;2.22;;;0.90;;
59052;SDS011;44843;44.728;10.396;2022-07-09T01:49:14;2.42;;;1.17;;
59052;SDS011;44843;44.728;10.396;2022-07-09T01:51:39;2.75;;;1.17;;
59052;SDS011;44843;44.728;10.396;2022-07-09T01:54:05;1.58;;;1.15;;
59052;SDS011;44843;44.728;10.396;2022-07-09T01:56:30;1.48;;;1.15;;
59052;SDS011;44843;44.728;10.396;2022-07-09T01:58:56;2.28;;;1.20;;
59052;SDS011;44843;44.728;10.396;2022-07-09T02:01:22;1.30;;;1.20;;
59052;SDS011;44843;44.728;10.396;2022-07-09T02:03:47;1.95;;;1.00;;
59052;SDS011;44843;44.728;10.396;2022-07-09T02:06:13;1.40;;;1.30;;
59052;SDS011;44843;44.728;10.396;2022-07-09T02:08:39;1.95;;;1.50;;
59052;SDS011;44843;44.728;10.396;2022-07-09T02:11:04;3.08;;;1.30;;
59052;SDS011;44843;44.728;10.396;2022-07-09T02:13:30;3.45;;;1.30;;
59052;SDS011;44843;44.728;10.396;2022-07-09T02:15:56;2.30;;;1.10;;
59052;SDS011;44843;44.728;10.396;2022-07-09T02:18:21;3.05;;;1.10;;
59052;SDS011;44843;44.728;10.396;2022-07-09T02:20:47;2.50;;;1.10;;
59052;SDS011;44843;44.728;10.396;2022-07-09T02:23:12;4.93;;;1.60;;
59052;SDS011;44843;44.728;10.396;2022-07-09T02:25:38;2.17;;;1.08;;
59052;SDS011;44843;44.728;10.396;2022-07-09T02:28:03;1.52;;;1.30;;
59052;SDS011;44843;44.728;10.396;2022-07-09T02:30:29;1.85;;;1.52;;
59052;SDS011;44843;44.728;10.396;2022-07-09T02:32:54;1.30;;;1.20;;
59052;SDS011;44843;44.728;10.396;2022-07-09T02:35:20;1.27;;;1.10;;
59052;SDS011;44843;44.728;10.396;2022-07-09T02:37:45;1.20;;;1.10;;
59052;SDS011;44843;44.728;10.396;2022-07-09T02:40:11;2.03;;;1.02;;
59052;SDS011;44843;44.728;10.396;2022-07-09T02:42:36;3.10;;;1.15;;
59052;SDS011;44843;44.728;10.396;2022-07-09T02:45:03;1.10;;;1.00;;
59052;SDS011;44843;44.728;10.396;2022-07-09T02:47:29;2.08;;;1.20;;
59052;SDS011;44843;44.728;10.396;2022-07-09T02:49:54;2.13;;;1.23;;
59052;SDS011;44843;44.728;10.396;2022-07-09T02:52:21;1.55;;;1.33;;
59052;SDS011;44843;44.728;10.396;2022-07-09T02:54:46;3.22;;;1.25;;
59052;SDS011;44843;44.728;10.396;2022-07-09T02:57:12;1.20;;;1.10;;
59052;SDS011;44843;44.728;10.396;2022-07-09T02:59:38;1.30;;;1.10;;
59052;SDS011;44843;44.728;10.396;2022-07-09T03:02:03;1.17;;;1.08;;
59052;SDS011;44843;44.728;10.396;2022-07-09T03:04:29;3.63;;;1.10;;
59052;SDS011;44843;44.728;10.396;2022-07-09T03:06:54;2.83;;;1.35;;
59052;SDS011;44843;44.728;10.396;2022-07-09T03:09:21;2.45;;;1.83;;
59052;SDS011;44843;44.728;10.396;2022-07-09T03:11:52;3.90;;;1.83;;
59052;SDS011;44843;44.728;10.396;2022-07-09T03:14:19;3.65;;;1.65;;
59052;SDS011;44843;44.728;10.396;2022-07-09T03:16:44;3.00;;;1.70;;
59052;SDS011;44843;44.728;10.396;2022-07-09T03:19:10;2.70;;;1.83;;
59052;SDS011;44843;44.728;10.396;2022-07-09T03:21:35;7.95;;;2.30;;
59052;SDS011;44843;44.728;10.396;2022-07-09T03:24:00;5.22;;;3.00;;
59052;SDS011;44843;44.728;10.396;2022-07-09T03:26:26;5.22;;;2.65;;
59052;SDS011;44843;44.728;10.396;2022-07-09T03:28:51;5.57;;;3.17;;
59052;SDS011;44843;44.728;10.396;2022-07-09T03:31:17;8.98;;;3.45;;
59052;SDS011;44843;44.728;10.396;2022-07-09T03:33:42;7.57;;;3.60;;
59052;SDS011;44843;44.728;10.396;2022-07-09T03:36:07;8.45;;;3.47;;
59052;SDS011;44843;44.728;10.396;2022-07-09T03:38:34;7.32;;;3.03;;
59052;SDS011;44843;44.728;10.396;2022-07-09T03:41:00;6.90;;;3.20;;
59052;SDS011;44843;44.728;10.396;2022-07-09T03:43:25;9.10;;;3.75;;
59052;SDS011;44843;44.728;10.396;2022-07-09T03:45:51;7.95;;;3.55;;
59052;SDS011;44843;44.728;10.396;2022-07-09T03:48:17;6.32;;;3.50;;
59052;SDS011;44843;44.728;10.396;2022-07-09T03:50:42;6.97;;;3.80;;
59052;SDS011;44843;44.728;10.396;2022-07-09T03:53:07;9.13;;;4.05;;
59052;SDS011;44843;44.728;10.396;2022-07-09T03:55:33;13.32;;;4.53;;
59052;SDS011;44843;44.728;10.396;2022-07-09T03:57:59;11.40;;;5.00;;
59052;SDS011;44843;44.728;10.396;2022-07-09T04:00:24;10.63;;;3.40;;
59052;SDS011;44843;44.728;10.396;2022-07-09T04:02:50;7.65;;;3.40;;
59052;SDS011;44843;44.728;10.396;2022-07-09T04:05:16;6.20;;;2.78;;
59052;SDS011;44843;44.728;10.396;2022-07-09T04:07:41;3.35;;;2.80;;
59052;SDS011;44843;44.728;10.396;2022-07-09T04:10:07;5.45;;;2.20;;
59052;SDS011;44843;44.728;10.396;2022-07-09T04:12:33;3.80;;;2.20;;
59052;SDS011;44843;44.728;10.396;2022-07-09T04:14:58;3.67;;;1.90;;
59052;SDS011;44843;44.728;10.396;2022-07-09T04:17:23;3.58;;;2.15;;
59052;SDS011;44843;44.728;10.396;2022-07-09T04:19:49;3.20;;;2.00;;
59052;SDS011;44843;44.728;10.396;2022-07-09T04:22:14;2.60;;;2.10;;
59052;SDS011;44843;44.728;10.396;2022-07-09T04:24:40;3.28;;;1.75;;
59052;SDS011;44843;44.728;10.396;2022-07-09T04:27:05;3.08;;;1.77;;
59052;SDS011;44843;44.728;10.396;2022-07-09T04:29:31;2.40;;;1.50;;
59052;SDS011;44843;44.728;10.396;2022-07-09T04:31:56;2.40;;;1.60;;
59052;SDS011;44843;44.728;10.396;2022-07-09T04:34:21;2.67;;;1.70;;
59052;SDS011;44843;44.728;10.396;2022-07-09T04:36:47;1.90;;;1.60;;
59052;SDS011;44843;44.728;10.396;2022-07-09T04:39:12;2.00;;;1.50;;
59052;SDS011;44843;44.728;10.396;2022-07-09T04:41:38;3.40;;;1.65;;
59052;SDS011;44843;44.728;10.396;2022-07-09T04:44:03;3.35;;;1.60;;
59052;SDS011;44843;44.728;10.396;2022-07-09T04:46:29;2.80;;;1.50;;
59052;SDS011;44843;44.728;10.396;2022-07-09T04:48:56;2.42;;;1.80;;
59052;SDS011;44843;44.728;10.396;2022-07-09T04:51:22;2.83;;;1.50;;
59052;SDS011;44843;44.728;10.396;2022-07-09T04:53:47;3.17;;;1.75;;
59052;SDS011;44843;44.728;10.396;2022-07-09T04:56:12;1.80;;;1.63;;
59052;SDS011;44843;44.728;10.396;2022-07-09T04:58:38;2.15;;;1.65;;
59052;SDS011;44843;44.728;10.396;2022-07-09T05:01:16;2.05;;;1.40;;
59052;SDS011;44843;44.728;10.396;2022-07-09T05:03:45;3.80;;;1.40;;
59052;SDS011;44843;44.728;10.396;2022-07-09T05:06:12;3.60;;;1.50;;
59052;SDS011;44843;44.728;10.396;2022-07-09T05:08:41;3.40;;;1.40;;
59052;SDS011;44843;44.728;10.396;2022-07-09T05:11:07;1.83;;;1.60;;
59052;SDS011;44843;44.728;10.396;2022-07-09T05:13:33;2.67;;;1.63;;
59052;SDS011;44843;44.728;10.396;2022-07-09T05:15:58;2.65;;;1.70;;
59052;SDS011;44843;44.728;10.396;2022-07-09T05:18:24;3.90;;;1.80;;
59052;SDS011;44843;44.728;10.396;2022-07-09T05:20:49;1.73;;;1.40;;
59052;SDS011;44843;44.728;10.396;2022-07-09T05:23:15;4.75;;;1.77;;
59052;SDS011;44843;44.728;10.396;2022-07-09T05:25:40;2.47;;;1.40;;
59052;SDS011;44843;44.728;10.396;2022-07-09T05:28:06;1.70;;;1.60;;
59052;SDS011;44843;44.728;10.396;2022-07-09T05:30:31;2.88;;;1.60;;
59052;SDS011;44843;44.728;10.396;2022-07-09T05:33:02;2.05;;;1.52;;
59052;SDS011;44843;44.728;10.396;2022-07-09T05:35:28;2.97;;;1.73;;
59052;SDS011;44843;44.728;10.396;2022-07-09T05:37:54;3.85;;;1.40;;
59052;SDS011;44843;44.728;10.396;2022-07-09T05:40:19;2.72;;;1.33;;
59052;SDS011;44843;44.728;10.396;2022-07-09T05:42:44;1.55;;;1.35;;
59052;SDS011;44843;44.728;10.396;2022-07-09T05:45:10;1.50;;;1.20;;
59052;SDS011;44843;44.728;10.396;2022-07-09T05:47:35;3.78;;;1.42;;
59052;SDS011;44843;44.728;10.396;2022-07-09T05:50:01;6.10;;;1.40;;
59052;SDS011;44843;44.728;10.396;2022-07-09T05:52:26;4.50;;;1.20;;
59052;SDS011;44843;44.728;10.396;2022-07-09T05:54:52;3.97;;;1.25;;
59052;SDS011;44843;44.728;10.396;2022-07-09T05:57:17;4.63;;;1.30;;
59052;SDS011;44843;44.728;10.396;2022-07-09T05:59:43;2.38;;;1.30;;
59052;SDS011;44843;44.728;10.396;2022-07-09T06:02:09;3.15;;;1.50;;
59052;SDS011;44843;44.728;10.396;2022-07-09T06:04:34;4.72;;;1.38;;
59052;SDS011;44843;44.728;10.396;2022-07-09T06:06:59;1.65;;;1.00;;
59052;SDS011;44843;44.728;10.396;2022-07-09T06:09:25;2.35;;;1.00;;
59052;SDS011;44843;44.728;10.396;2022-07-09T06:11:50;1.25;;;1.15;;
59052;SDS011;44843;44.728;10.396;2022-07-09T06:14:16;2.92;;;1.33;;
59052;SDS011;44843;44.728;10.396;2022-07-09T06:16:42;3.22;;;1.50;;
59052;SDS011;44843;44.728;10.396;2022-07-09T06:19:07;3.28;;;1.33;;
59052;SDS011;44843;44.728;10.396;2022-07-09T06:21:32;2.25;;;1.45;;
59052;SDS011;44843;44.728;10.396;2022-07-09T06:23:58;7.80;;;1.38;;
59052;SDS011;44843;44.728;10.396;2022-07-09T06:26:23;2.47;;;1.23;;
59052;SDS011;44843;44.728;10.396;2022-07-09T06:28:49;4.35;;;1.40;;
59052;SDS011;44843;44.728;10.396;2022-07-09T06:31:14;1.70;;;1.00;;
59052;SDS011;44843;44.728;10.396;2022-07-09T06:33:40;2.38;;;1.33;;
59052;SDS011;44843;44.728;10.396;2022-07-09T06:36:05;4.45;;;1.70;;
59052;SDS011;44843;44.728;10.396;2022-07-09T06:38:31;3.13;;;1.88;;
59052;SDS011;44843;44.728;10.396;2022-07-09T06:40:56;2.80;;;1.77;;
59052;SDS011;44843;44.728;10.396;2022-07-09T06:55:30;3.00;;;1.55;;
59052;SDS011;44843;44.728;10.396;2022-07-09T06:57:56;4.80;;;1.88;;
59052;SDS011;44843;44.728;10.396;2022-07-09T07:00:22;1.98;;;1.17;;
59052;SDS011;44843;44.728;10.396;2022-07-09T07:02:48;4.32;;;1.13;;
59052;SDS011;44843;44.728;10.396;2022-07-09T07:05:14;6.45;;;1.75;;
59052;SDS011;44843;44.728;10.396;2022-07-09T07:07:40;5.15;;;1.20;;
59052;SDS011;44843;44.728;10.396;2022-07-09T07:10:05;4.20;;;1.33;;
59052;SDS011;44843;44.728;10.396;2022-07-09T07:12:31;5.22;;;1.48;;
59052;SDS011;44843;44.728;10.396;2022-07-09T07:14:56;4.70;;;1.30;;
59052;SDS011;44843;44.728;10.396;2022-07-09T07:17:22;2.67;;;1.30;;
59052;SDS011;44843;44.728;10.396;2022-07-09T07:19:47;6.38;;;1.30;;
59052;SDS011;44843;44.728;10.396;2022-07-09T07:22:13;5.60;;;1.27;;
59052;SDS011;44843;44.728;10.396;2022-07-09T07:24:38;3.60;;;1.20;;
59052;SDS011;44843;44.728;10.396;2022-07-09T07:27:04;3.97;;;1.40;;
59052;SDS011;44843;44.728;10.396;2022-07-09T07:29:29;3.88;;;1.17;;
59052;SDS011;44843;44.728;10.396;2022-07-09T07:31:55;8.90;;;1.50;;
59052;SDS011;44843;44.728;10.396;2022-07-09T07:34:22;4.50;;;0.90;;
59052;SDS011;44843;44.728;10.396;2022-07-09T07:36:49;5.70;;;1.15;;
59052;SDS011;44843;44.728;10.396;2022-07-09T07:39:16;4.72;;;1.05;;
59052;SDS011;44843;44.728;10.396;2022-07-09T07:41:42;6.85;;;1.20;;
59052;SDS011;44843;44.728;10.396;2022-07-09T07:44:07;2.85;;;1.33;;
59052;SDS011;44843;44.728;10.396;2022-07-09T07:46:33;3.92;;;1.08;;
59052;SDS011;44843;44.728;10.396;2022-07-09T07:48:58;3.85;;;1.05;;
59052;SDS011;44843;44.728;10.396;2022-07-09T07:51:23;3.30;;;1.40;;
59052;SDS011;44843;44.728;10.396;2022-07-09T07:53:49;5.70;;;1.00;;
59052;SDS011;44843;44.728;10.396;2022-07-09T07:56:15;5.50;;;0.95;;
59052;SDS011;44843;44.728;10.396;2022-07-09T07:58:40;0.88;;;0.75;;
59052;SDS011;44843;44.728;10.396;2022-07-09T08:01:06;1.23;;;0.80;;
59052;SDS011;44843;44.728;10.396;2022-07-09T08:03:31;1.25;;;0.75;;
59052;SDS011;44843;44.728;10.396;2022-07-09T08:05:57;1.60;;;1.02;;
59052;SDS011;44843;44.728;10.396;2022-07-09T08:08:22;3.03;;;0.80;;
59052;SDS011;44843;44.728;10.396;2022-07-09T08:10:48;1.10;;;0.93;;
59052;SDS011;44843;44.728;10.396;2022-07-09T08:13:14;14.30;;;1.42;;
59052;SDS011;44843;44.728;10.396;2022-07-09T08:15:40;1.63;;;0.80;;
59052;SDS011;44843;44.728;10.396;2022-07-09T08:18:06;2.10;;;1.05;;
59052;SDS011;44843;44.728;10.396;2022-07-09T08:20:37;3.03;;;0.80;;
59052;SDS011;44843;44.728;10.396;2022-07-09T08:23:04;1.02;;;0.82;;
59052;SDS011;44843;44.728;10.396;2022-07-09T08:25:30;4.00;;;1.13;;
59052;SDS011;44843;44.728;10.396;2022-07-09T08:27:55;4.93;;;0.80;;
59052;SDS011;44843;44.728;10.396;2022-07-09T08:30:21;5.05;;;1.45;;
59052;SDS011;44843;44.728;10.396;2022-07-09T08:32:46;1.50;;;0.70;;
59052;SDS011;44843;44.728;10.396;2022-07-09T08:35:11;2.15;;;0.70;;
59052;SDS011;44843;44.728;10.396;2022-07-09T08:37:37;5.15;;;0.82;;
59052;SDS011;44843;44.728;10.396;2022-07-09T08:40:02;1.65;;;0.70;;
59052;SDS011;44843;44.728;10.396;2022-07-09T08:42:28;1.25;;;0.80;;
59052;SDS011;44843;44.728;10.396;2022-07-09T08:44:54;3.60;;;1.80;;
59052;SDS011;44843;44.728;10.396;2022-07-09T08:47:19;4.72;;;0.70;;
59052;SDS011;44843;44.728;10.396;2022-07-09T08:49:45;1.48;;;0.93;;
59052;SDS011;44843;44.728;10.396;2022-07-09T08:52:12;0.82;;;0.70;;
59052;SDS011;44843;44.728;10.396;2022-07-09T08:57:07;0.68;;;0.65;;
59052;SDS011;44843;44.728;10.396;2022-07-09T08:59:32;1.95;;;0.70;;
59052;SDS011;44843;44.728;10.396;2022-07-09T09:02:02;1.67;;;0.80;;
59052;SDS011;44843;44.728;10.396;2022-07-09T09:04:28;2.85;;;0.80;;
59052;SDS011;44843;44.728;10.396;2022-07-09T09:06:55;3.08;;;1.05;;
59052;SDS011;44843;44.728;10.396;2022-07-09T09:09:20;4.28;;;0.82;;
59052;SDS011;44843;44.728;10.396;2022-07-09T09:11:47;1.23;;;0.80;;
59052;SDS011;44843;44.728;10.396;2022-07-09T09:14:19;1.45;;;0.60;;
59052;SDS011;44843;44.728;10.396;2022-07-09T09:16:47;1.52;;;0.73;;
59052;SDS011;44843;44.728;10.396;2022-07-09T09:19:12;7.57;;;1.30;;
59052;SDS011;44843;44.728;10.396;2022-07-09T09:21:38;0.73;;;0.60;;
59052;SDS011;44843;44.728;10.396;2022-07-09T09:24:03;7.53;;;1.05;;
59052;SDS011;44843;44.728;10.396;2022-07-09T09:26:29;1.60;;;0.70;;
59052;SDS011;44843;44.728;10.396;2022-07-09T09:28:56;1.55;;;0.70;;
59052;SDS011;44843;44.728;10.396;2022-07-09T09:34:17;1.75;;;0.70;;
59052;SDS011;44843;44.728;10.396;2022-07-09T09:41:39;4.50;;;0.88;;
59052;SDS011;44843;44.728;10.396;2022-07-09T09:44:05;1.73;;;0.70;;
59052;SDS011;44843;44.728;10.396;2022-07-09T09:46:35;1.35;;;0.73;;
59052;SDS011;44843;44.728;10.396;2022-07-09T09:49:03;4.60;;;0.82;;
59052;SDS011;44843;44.728;10.396;2022-07-09T09:51:33;4.13;;;1.30;;
59052;SDS011;44843;44.728;10.396;2022-07-09T09:54:01;2.25;;;0.68;;
59052;SDS011;44843;44.728;10.396;2022-07-09T09:56:28;2.50;;;0.80;;
59052;SDS011;44843;44.728;10.396;2022-07-09T09:58:54;1.63;;;0.80;;
59052;SDS011;44843;44.728;10.396;2022-07-09T10:01:20;1.77;;;0.70;;
59052;SDS011;44843;44.728;10.396;2022-07-09T10:06:12;1.30;;;0.80;;
59052;SDS011;44843;44.728;10.396;2022-07-09T10:08:38;2.10;;;1.23;;
59052;SDS011;44843;44.728;10.396;2022-07-09T10:11:03;2.53;;;0.88;;
59052;SDS011;44843;44.728;10.396;2022-07-09T10:13:29;4.53;;;0.93;;
59052;SDS011;44843;44.728;10.396;2022-07-09T10:15:55;3.22;;;0.90;;
59052;SDS011;44843;44.728;10.396;2022-07-09T10:18:20;2.45;;;0.90;;
59052;SDS011;44843;44.728;10.396;2022-07-09T10:20:46;1.52;;;1.10;;
59052;SDS011;44843;44.728;10.396;2022-07-09T10:23:21;2.28;;;0.88;;
59052;SDS011;44843;44.728;10.396;2022-07-09T10:25:51;2.42;;;0.80;;
59052;SDS011;44843;44.728;10.396;2022-07-09T10:28:20;2.28;;;1.00;;
59052;SDS011;44843;44.728;10.396;2022-07-09T10:30:47;2.60;;;1.20;;
59052;SDS011;44843;44.728;10.396;2022-07-09T10:33:13;2.10;;;1.02;;
59052;SDS011;44843;44.728;10.396;2022-07-09T10:35:50;5.97;;;0.90;;
59052;SDS011;44843;44.728;10.396;2022-07-09T10:38:17;1.45;;;0.85;;
59052;SDS011;44843;44.728;10.396;2022-07-09T10:40:44;5.03;;;0.88;;
59052;SDS011;44843;44.728;10.396;2022-07-09T10:43:13;2.05;;;1.00;;
59052;SDS011;44843;44.728;10.396;2022-07-09T10:45:40;5.05;;;0.90;;
59052;SDS011;44843;44.728;10.396;2022-07-09T10:48:07;3.17;;;0.88;;
59052;SDS011;44843;44.728;10.396;2022-07-09T10:50:40;1.17;;;0.80;;
59052;SDS011;44843;44.728;10.396;2022-07-09T10:55:33;4.00;;;1.25;;
59052;SDS011;44843;44.728;10.396;2022-07-09T10:57:59;1.55;;;1.00;;
59052;SDS011;44843;44.728;10.396;2022-07-09T11:00:26;3.13;;;2.22;;
59052;SDS011;44843;44.728;10.396;2022-07-09T11:03:02;1.92;;;1.00;;
59052;SDS011;44843;44.728;10.396;2022-07-09T11:05:33;2.15;;;1.00;;
59052;SDS011;44843;44.728;10.396;2022-07-09T11:08:08;2.22;;;1.15;;
59052;SDS011;44843;44.728;10.396;2022-07-09T11:10:36;2.35;;;1.75;;
59052;SDS011;44843;44.728;10.396;2022-07-09T11:13:03;2.05;;;0.88;;
59052;SDS011;44843;44.728;10.396;2022-07-09T11:15:31;2.08;;;1.20;;
59052;SDS011;44843;44.728;10.396;2022-07-09T11:18:03;3.65;;;1.27;;
59052;SDS011;44843;44.728;10.396;2022-07-09T11:20:39;2.05;;;1.17;;
59052;SDS011;44843;44.728;10.396;2022-07-09T11:23:10;4.93;;;1.00;;
59052;SDS011;44843;44.728;10.396;2022-07-09T11:25:36;2.88;;;0.98;;
59052;SDS011;44843;44.728;10.396;2022-07-09T11:28:02;1.50;;;0.70;;
59052;SDS011;44843;44.728;10.396;2022-07-09T11:30:28;3.10;;;0.90;;
59052;SDS011;44843;44.728;10.396;2022-07-09T11:32:54;4.10;;;1.15;;
59052;SDS011;44843;44.728;10.396;2022-07-09T11:38:00;1.00;;;0.75;;
59052;SDS011;44843;44.728;10.396;2022-07-09T11:40:27;1.63;;;1.00;;
59052;SDS011;44843;44.728;10.396;2022-07-09T11:42:53;3.17;;;1.00;;
59052;SDS011;44843;44.728;10.396;2022-07-09T11:45:27;2.65;;;1.00;;
59052;SDS011;44843;44.728;10.396;2022-07-09T11:48:03;3.03;;;1.00;;
59052;SDS011;44843;44.728;10.396;2022-07-09T11:50:33;0.88;;;0.75;;
59052;SDS011;44843;44.728;10.396;2022-07-09T11:53:05;1.88;;;0.85;;
59052;SDS011;44843;44.728;10.396;2022-07-09T11:55:31;2.97;;;1.00;;
59052;SDS011;44843;44.728;10.396;2022-07-09T11:57:58;1.63;;;1.00;;
59052;SDS011;44843;44.728;10.396;2022-07-09T12:00:28;2.55;;;0.90;;
59052;SDS011;44843;44.728;10.396;2022-07-09T12:02:56;3.05;;;1.17;;
59052;SDS011;44843;44.728;10.396;2022-07-09T12:08:07;4.75;;;1.20;;
59052;SDS011;44843;44.728;10.396;2022-07-09T12:10:33;2.50;;;1.17;;
59052;SDS011;44843;44.728;10.396;2022-07-09T12:15:29;1.03;;;0.90;;
59052;SDS011;44843;44.728;10.396;2022-07-09T12:17:55;3.38;;;1.00;;
59052;SDS011;44843;44.728;10.396;2022-07-09T12:20:22;2.38;;;0.88;;
59052;SDS011;44843;44.728;10.396;2022-07-09T12:22:49;2.65;;;1.35;;
59052;SDS011;44843;44.728;10.396;2022-07-09T12:25:15;1.25;;;0.93;;
59052;SDS011;44843;44.728;10.396;2022-07-09T12:27:41;0.68;;;0.68;;
59052;SDS011;44843;44.728;10.396;2022-07-09T12:30:07;3.80;;;1.02;;
59052;SDS011;44843;44.728;10.396;2022-07-09T12:32:32;3.05;;;1.20;;
59052;SDS011;44843;44.728;10.396;2022-07-09T12:34:59;2.97;;;0.90;;
59052;SDS011;44843;44.728;10.396;2022-07-09T12:37:25;2.40;;;0.90;;
59052;SDS011;44843;44.728;10.396;2022-07-09T12:39:51;2.15;;;0.93;;
59052;SDS011;44843;44.728;10.396;2022-07-09T12:42:18;1.40;;;0.80;;
59052;SDS011;44843;44.728;10.396;2022-07-09T12:44:43;2.72;;;1.17;;
59052;SDS011;44843;44.728;10.396;2022-07-09T12:47:09;2.72;;;0.90;;
59052;SDS011;44843;44.728;10.396;2022-07-09T12:49:35;3.67;;;1.10;;
59052;SDS011;44843;44.728;10.396;2022-07-09T12:54:26;1.85;;;1.40;;
59052;SDS011;44843;44.728;10.396;2022-07-09T12:59:17;1.05;;;0.80;;
59052;SDS011;44843;44.728;10.396;2022-07-09T13:01:43;1.30;;;0.90;;
59052;SDS011;44843;44.728;10.396;2022-07-09T13:04:08;6.15;;;1.13;;
59052;SDS011;44843;44.728;10.396;2022-07-09T13:06:34;1.67;;;0.77;;
59052;SDS011;44843;44.728;10.396;2022-07-09T13:09:00;1.92;;;1.10;;
59052;SDS011;44843;44.728;10.396;2022-07-09T13:11:26;5.60;;;1.00;;
59052;SDS011;44843;44.728;10.396;2022-07-09T13:13:52;0.85;;;0.80;;
59052;SDS011;44843;44.728;10.396;2022-07-09T13:16:17;1.52;;;0.90;;
59052;SDS011;44843;44.728;10.396;2022-07-09T13:18:43;3.97;;;0.95;;
59052;SDS011;44843;44.728;10.396;2022-07-09T13:21:08;1.38;;;0.90;;
59052;SDS011;44843;44.728;10.396;2022-07-09T13:23:34;3.85;;;1.02;;
59052;SDS011;44843;44.728;10.396;2022-07-09T13:25:59;1.75;;;0.88;;
59052;SDS011;44843;44.728;10.396;2022-07-09T13:28:25;2.13;;;1.17;;
59052;SDS011;44843;44.728;10.396;2022-07-09T13:30:50;2.30;;;0.90;;
59052;SDS011;44843;44.728;10.396;2022-07-09T13:33:16;1.48;;;1.00;;
59052;SDS011;44843;44.728;10.396;2022-07-09T13:35:41;4.85;;;1.27;;
59052;SDS011;44843;44.728;10.396;2022-07-09T13:38:07;4.82;;;1.65;;
59052;SDS011;44843;44.728;10.396;2022-07-09T13:40:32;2.38;;;1.05;;
59052;SDS011;44843;44.728;10.396;2022-07-09T13:42:58;1.38;;;1.20;;
59052;SDS011;44843;44.728;10.396;2022-07-09T13:45:23;2.00;;;0.90;;
59052;SDS011;44843;44.728;10.396;2022-07-09T13:47:49;1.38;;;1.10;;
59052;SDS011;44843;44.728;10.396;2022-07-09T13:50:14;2.80;;;0.85;;
59052;SDS011;44843;44.728;10.396;2022-07-09T13:52:40;4.35;;;0.93;;
59052;SDS011;44843;44.728;10.396;2022-07-09T13:55:06;1.35;;;0.93;;
59052;SDS011;44843;44.728;10.396;2022-07-09T13:57:32;2.38;;;1.05;;
59052;SDS011;44843;44.728;10.396;2022-07-09T13:59:57;1.80;;;0.93;;
59052;SDS011;44843;44.728;10.396;2022-07-09T14:02:23;3.08;;;1.10;;
59052;SDS011;44843;44.728;10.396;2022-07-09T14:04:48;1.45;;;0.93;;
59052;SDS011;44843;44.728;10.396;2022-07-09T14:07:14;1.08;;;0.90;;
59052;SDS011;44843;44.728;10.396;2022-07-09T14:09:40;1.77;;;1.05;;
59052;SDS011;44843;44.728;10.396;2022-07-09T14:12:06;1.35;;;0.90;;
59052;SDS011;44843;44.728;10.396;2022-07-09T14:14:32;2.05;;;0.90;;
59052;SDS011;44843;44.728;10.396;2022-07-09T14:16:57;1.60;;;0.82;;
59052;SDS011;44843;44.728;10.396;2022-07-09T14:19:24;2.10;;;1.00;;
59052;SDS011;44843;44.728;10.396;2022-07-09T14:21:49;1.10;;;0.93;;
59052;SDS011;44843;44.728;10.396;2022-07-09T14:24:15;1.90;;;0.88;;
59052;SDS011;44843;44.728;10.396;2022-07-09T14:26:40;1.88;;;0.93;;
59052;SDS011;44843;44.728;10.396;2022-07-09T14:29:10;1.40;;;0.80;;
59052;SDS011;44843;44.728;10.396;2022-07-09T14:31:37;3.83;;;1.00;;
59052;SDS011;44843;44.728;10.396;2022-07-09T14:34:02;3.78;;;0.90;;
59052;SDS011;44843;44.728;10.396;2022-07-09T14:36:27;2.30;;;1.10;;
59052;SDS011;44843;44.728;10.396;2022-07-09T14:38:53;0.90;;;0.90;;
59052;SDS011;44843;44.728;10.396;2022-07-09T14:41:18;3.35;;;0.90;;
59052;SDS011;44843;44.728;10.396;2022-07-09T14:43:44;6.03;;;1.10;;
59052;SDS011;44843;44.728;10.396;2022-07-09T14:46:10;1.48;;;0.90;;
59052;SDS011;44843;44.728;10.396;2022-07-09T14:48:35;5.47;;;1.70;;
59052;SDS011;44843;44.728;10.396;2022-07-09T14:51:00;4.40;;;1.30;;
59052;SDS011;44843;44.728;10.396;2022-07-09T14:53:26;6.63;;;2.78;;
59052;SDS011;44843;44.728;10.396;2022-07-09T14:55:51;12.43;;;3.85;;
59052;SDS011;44843;44.728;10.396;2022-07-09T14:58:17;6.63;;;2.97;;
59052;SDS011;44843;44.728;10.396;2022-07-09T15:00:43;1.60;;;1.20;;
59052;SDS011;44843;44.728;10.396;2022-07-09T15:03:09;1.80;;;0.90;;
59052;SDS011;44843;44.728;10.396;2022-07-09T15:05:34;3.28;;;1.08;;
59052;SDS011;44843;44.728;10.396;2022-07-09T15:08:00;2.45;;;1.20;;